sensor_id;sensor_type;location;lat;lon;timestamp;pressure;altitude;pressure_sealevel;temperature;humidity
3150;BME280;32503;47.748;8.960;2023-05-16T00:00:05;96574.16;;;13.58;72.91
3150;BME280;32503;47.748;8.960;2023-05-16T00:02:33;96565.22;;;13.58;72.53
3150;BME280;32503;47.748;8.960;2023-05-16T00:05:04;96566.00;;;13.55;72.52
3150;BME280;32503;47.748;8.960;2023-05-16T00:07:33;96564.44;;;13.54;72.56
3150;BME280;32503;47.748;8.960;2023-05-16T00:10:00;96548.84;;;13.36;72.86
3150;BME280;32503;47.748;8.960;2023-05-16T00:12:27;96565.59;;;13.49;72.90
3150;BME280;32503;47.748;8.960;2023-05-16T00:14:55;96567.91;;;13.47;72.71
3150;BME280;32503;47.748;8.960;2023-05-16T00:17:22;96564.00;;;13.48;72.82
3150;BME280;32503;47.748;8.960;2023-05-16T00:19:49;96561.69;;;13.43;72.81
3150;BME280;32503;47.748;8.960;2023-05-16T00:22:24;96561.28;;;13.44;72.89
3150;BME280;32503;47.748;8.960;2023-05-16T00:24:51;96561.28;;;13.48;72.71
3150;BME280;32503;47.748;8.960;2023-05-16T00:27:19;96522.38;;;13.26;72.53
3150;BME280;32503;47.748;8.960;2023-05-16T00:29:46;96565.59;;;13.53;72.53
3150;BME280;32503;47.748;8.960;2023-05-16T00:32:13;96551.63;;;13.51;72.80
3150;BME280;32503;47.748;8.960;2023-05-16T00:34:40;96547.31;;;13.46;72.64
3150;BME280;32503;47.748;8.960;2023-05-16T00:37:07;96561.31;;;13.55;72.68
3150;BME280;32503;47.748;8.960;2023-05-16T00:39:35;96558.22;;;13.53;72.68
3150;BME280;32503;47.748;8.960;2023-05-16T00:42:03;96557.47;;;13.56;72.54
3150;BME280;32503;47.748;8.960;2023-05-16T00:44:30;96546.59;;;13.53;72.32
3150;BME280;32503;47.748;8.960;2023-05-16T00:46:57;96544.66;;;13.57;72.42
3150;BME280;32503;47.748;8.960;2023-05-16T00:49:25;96546.25;;;13.61;72.20
3150;BME280;32503;47.748;8.960;2023-05-16T00:51:53;96551.66;;;13.58;72.42
3150;BME280;32503;47.748;8.960;2023-05-16T00:54:21;96547.34;;;13.53;72.72
3150;BME280;32503;47.748;8.960;2023-05-16T00:56:52;96547.31;;;13.46;73.12
3150;BME280;32503;47.748;8.960;2023-05-16T00:59:19;96542.25;;;13.41;73.27
3150;BME280;32503;47.748;8.960;2023-05-16T01:01:46;96527.81;;;13.30;73.75
3150;BME280;32503;47.748;8.960;2023-05-16T01:04:15;96548.91;;;13.47;73.35
3150;BME280;32503;47.748;8.960;2023-05-16T01:06:42;96541.91;;;13.46;73.43
3150;BME280;32503;47.748;8.960;2023-05-16T01:09:10;96542.72;;;13.50;73.41
3150;BME280;32503;47.748;8.960;2023-05-16T01:11:46;96540.38;;;13.52;73.32
3150;BME280;32503;47.748;8.960;2023-05-16T01:14:24;96540.75;;;13.51;73.34
3150;BME280;32503;47.748;8.960;2023-05-16T01:17:04;96532.59;;;13.47;73.13
3150;BME280;32503;47.748;8.960;2023-05-16T01:19:50;96525.94;;;13.37;73.75
3150;BME280;32503;47.748;8.960;2023-05-16T01:22:33;96536.47;;;13.50;73.58
3150;BME280;32503;47.748;8.960;2023-05-16T01:25:15;96534.16;;;13.55;73.23
3150;BME280;32503;47.748;8.960;2023-05-16T01:27:48;96546.59;;;13.56;73.25
3150;BME280;32503;47.748;8.960;2023-05-16T01:30:18;96540.38;;;13.52;73.35
3150;BME280;32503;47.748;8.960;2023-05-16T01:32:45;96539.22;;;13.53;73.36
3150;BME280;32503;47.748;8.960;2023-05-16T01:35:15;96545.81;;;13.52;73.51
3150;BME280;32503;47.748;8.960;2023-05-16T01:37:48;96539.56;;;13.48;73.66
3150;BME280;32503;47.748;8.960;2023-05-16T01:40:35;96544.22;;;13.44;73.89
3150;BME280;32503;47.748;8.960;2023-05-16T01:43:11;96532.56;;;13.40;74.10
3150;BME280;32503;47.748;8.960;2023-05-16T01:45:43;96537.25;;;13.46;74.00
3150;BME280;32503;47.748;8.960;2023-05-16T01:48:16;96524.03;;;13.38;73.86
3150;BME280;32503;47.748;8.960;2023-05-16T01:50:51;96541.88;;;13.42;74.06
3150;BME280;32503;47.748;8.960;2023-05-16T01:53:26;96540.72;;;13.40;74.27
3150;BME280;32503;47.748;8.960;2023-05-16T01:55:56;96537.59;;;13.38;74.49
3150;BME280;32503;47.748;8.960;2023-05-16T01:58:30;96534.09;;;13.37;74.67
3150;BME280;32503;47.748;8.960;2023-05-16T02:01:00;96540.31;;;13.38;74.50
3150;BME280;32503;47.748;8.960;2023-05-16T02:03:28;96531.44;;;13.48;74.19
3150;BME280;32503;47.748;8.960;2023-05-16T02:05:55;96525.63;;;13.53;73.90
3150;BME280;32503;47.748;8.960;2023-05-16T02:08:23;96531.44;;;13.55;73.64
3150;BME280;32503;47.748;8.960;2023-05-16T02:10:51;96520.19;;;13.50;73.44
3150;BME280;32503;47.748;8.960;2023-05-16T02:13:18;96523.28;;;13.52;73.49
3150;BME280;32503;47.748;8.960;2023-05-16T02:15:46;96527.16;;;13.47;73.63
3150;BME280;32503;47.748;8.960;2023-05-16T02:18:13;96531.03;;;13.42;73.73
3150;BME280;32503;47.748;8.960;2023-05-16T02:20:40;96532.56;;;13.40;74.20
3150;BME280;32503;47.748;8.960;2023-05-16T02:23:07;96529.84;;;13.40;73.79
3150;BME280;32503;47.748;8.960;2023-05-16T02:25:34;96529.50;;;13.45;73.63
3150;BME280;32503;47.748;8.960;2023-05-16T02:28:01;96523.25;;;13.41;73.57
3150;BME280;32503;47.748;8.960;2023-05-16T02:30:28;96523.22;;;13.34;73.81
3150;BME280;32503;47.748;8.960;2023-05-16T02:32:57;96528.56;;;13.26;73.89
3150;BME280;32503;47.748;8.960;2023-05-16T02:35:24;96527.78;;;13.22;74.23
3150;BME280;32503;47.748;8.960;2023-05-16T02:37:51;96528.94;;;13.21;74.51
3150;BME280;32503;47.748;8.960;2023-05-16T02:40:18;96525.81;;;13.19;74.24
3150;BME280;32503;47.748;8.960;2023-05-16T02:42:45;96526.19;;;13.18;74.34
3150;BME280;32503;47.748;8.960;2023-05-16T02:45:12;96512.66;;;13.21;74.09
3150;BME280;32503;47.748;8.960;2023-05-16T02:47:39;96514.56;;;13.17;74.02
3150;BME280;32503;47.748;8.960;2023-05-16T02:50:08;96507.63;;;13.27;73.85
3150;BME280;32503;47.748;8.960;2023-05-16T02:52:35;96514.25;;;13.30;73.83
3150;BME280;32503;47.748;8.960;2023-05-16T02:55:03;96519.28;;;13.27;73.85
3150;BME280;32503;47.748;8.960;2023-05-16T02:57:31;96517.31;;;13.24;73.89
3150;BME280;32503;47.748;8.960;2023-05-16T02:59:57;96507.63;;;13.23;73.94
3150;BME280;32503;47.748;8.960;2023-05-16T03:02:24;96503.38;;;13.22;74.13
3150;BME280;32503;47.748;8.960;2023-05-16T03:04:51;96501.44;;;13.26;73.92
3150;BME280;32503;47.748;8.960;2023-05-16T03:07:20;96500.66;;;13.22;73.93
3150;BME280;32503;47.748;8.960;2023-05-16T03:09:47;96506.06;;;13.22;73.75
3150;BME280;32503;47.748;8.960;2023-05-16T03:12:14;96496.75;;;13.23;73.85
3150;BME280;32503;47.748;8.960;2023-05-16T03:14:41;96497.56;;;13.24;73.63
3150;BME280;32503;47.748;8.960;2023-05-16T03:17:08;96498.31;;;13.21;73.71
3150;BME280;32503;47.748;8.960;2023-05-16T03:19:35;96496.72;;;13.16;73.99
3150;BME280;32503;47.748;8.960;2023-05-16T03:22:02;96488.16;;;13.07;73.92
3150;BME280;32503;47.748;8.960;2023-05-16T03:24:31;96498.28;;;13.17;73.90
3150;BME280;32503;47.748;8.960;2023-05-16T03:26:58;96495.19;;;13.15;73.71
3150;BME280;32503;47.748;8.960;2023-05-16T03:29:25;96500.63;;;13.15;73.83
3150;BME280;32503;47.748;8.960;2023-05-16T03:31:52;96496.69;;;13.09;73.91
3150;BME280;32503;47.748;8.960;2023-05-16T03:34:19;96501.34;;;13.08;73.79
3150;BME280;32503;47.748;8.960;2023-05-16T03:36:47;96503.97;;;12.90;74.02
3150;BME280;32503;47.748;8.960;2023-05-16T03:39:15;96491.44;;;12.75;74.46
3150;BME280;32503;47.748;8.960;2023-05-16T03:41:43;96503.47;;;12.74;74.45
3150;BME280;32503;47.748;8.960;2023-05-16T03:44:10;96505.75;;;12.72;74.54
3150;BME280;32503;47.748;8.960;2023-05-16T03:46:37;96497.63;;;12.76;74.54
3150;BME280;32503;47.748;8.960;2023-05-16T03:49:04;96497.66;;;12.79;75.05
3150;BME280;32503;47.748;8.960;2023-05-16T03:51:31;96499.63;;;12.82;74.85
3150;BME280;32503;47.748;8.960;2023-05-16T03:53:58;96495.38;;;12.81;74.78
3150;BME280;32503;47.748;8.960;2023-05-16T03:56:25;96465.44;;;12.67;74.65
3150;BME280;32503;47.748;8.960;2023-05-16T03:58:54;96498.13;;;12.88;74.74
3150;BME280;32503;47.748;8.960;2023-05-16T04:01:21;96498.13;;;12.88;74.36
3150;BME280;32503;47.748;8.960;2023-05-16T04:03:48;96505.09;;;12.89;74.47
3150;BME280;32503;47.748;8.960;2023-05-16T04:06:15;96504.31;;;12.89;74.21
3150;BME280;32503;47.748;8.960;2023-05-16T04:08:43;96507.81;;;12.89;74.49
3150;BME280;32503;47.748;8.960;2023-05-16T04:11:10;96515.22;;;12.93;74.35
3150;BME280;32503;47.748;8.960;2023-05-16T04:13:37;96516.34;;;12.92;74.43
3150;BME280;32503;47.748;8.960;2023-05-16T04:16:06;96518.31;;;12.95;74.16
3150;BME280;32503;47.748;8.960;2023-05-16T04:18:33;96512.13;;;12.98;73.91
3150;BME280;32503;47.748;8.960;2023-05-16T04:21:00;96515.66;;;13.05;73.90
3150;BME280;32503;47.748;8.960;2023-05-16T04:23:28;96509.09;;;13.06;73.72
3150;BME280;32503;47.748;8.960;2023-05-16T04:25:55;96520.75;;;13.11;73.75
3150;BME280;32503;47.748;8.960;2023-05-16T04:28:22;96516.06;;;13.11;73.74
3150;BME280;32503;47.748;8.960;2023-05-16T04:30:49;96525.44;;;13.17;73.74
3150;BME280;32503;47.748;8.960;2023-05-16T04:33:18;96522.38;;;13.22;73.79
3150;BME280;32503;47.748;8.960;2023-05-16T04:35:45;96523.91;;;13.23;73.37
3150;BME280;32503;47.748;8.960;2023-05-16T04:38:13;96527.81;;;13.26;73.34
3150;BME280;32503;47.748;8.960;2023-05-16T04:40:40;96521.28;;;13.34;73.12
3150;BME280;32503;47.748;8.960;2023-05-16T04:43:07;96524.38;;;13.33;73.14
3150;BME280;32503;47.748;8.960;2023-05-16T04:45:35;96525.53;;;13.32;72.89
3150;BME280;32503;47.748;8.960;2023-05-16T04:48:02;96527.13;;;13.36;72.77
3150;BME280;32503;47.748;8.960;2023-05-16T04:50:30;96505.34;;;13.29;72.66
3150;BME280;32503;47.748;8.960;2023-05-16T04:52:57;96527.94;;;13.44;72.49
3150;BME280;32503;47.748;8.960;2023-05-16T04:55:24;96526.75;;;13.41;72.62
3150;BME280;32503;47.748;8.960;2023-05-16T04:57:51;96527.94;;;13.44;72.54
3150;BME280;32503;47.748;8.960;2023-05-16T05:00:19;96524.47;;;13.47;72.41
3150;BME280;32503;47.748;8.960;2023-05-16T05:02:46;96520.16;;;13.46;72.42
3150;BME280;32503;47.748;8.960;2023-05-16T05:05:13;96521.72;;;13.43;72.49
3150;BME280;32503;47.748;8.960;2023-05-16T05:07:41;96512.38;;;13.41;72.51
3150;BME280;32503;47.748;8.960;2023-05-16T05:10:09;96525.63;;;13.53;72.20
3150;BME280;32503;47.748;8.960;2023-05-16T05:12:37;96528.38;;;13.60;72.09
3150;BME280;32503;47.748;8.960;2023-05-16T05:15:05;96522.56;;;13.65;71.92
3150;BME280;32503;47.748;8.960;2023-05-16T05:17:33;96530.38;;;13.74;71.62
3150;BME280;32503;47.748;8.960;2023-05-16T05:20:00;96521.84;;;13.79;71.69
3150;BME280;32503;47.748;8.960;2023-05-16T05:22:31;96529.66;;;13.92;71.28
3150;BME280;32503;47.748;8.960;2023-05-16T05:25:00;96527.75;;;13.99;71.19
3150;BME280;32503;47.748;8.960;2023-05-16T05:27:27;96533.59;;;14.09;70.94
3150;BME280;32503;47.748;8.960;2023-05-16T05:29:54;96534.00;;;14.25;70.82
3150;BME280;32503;47.748;8.960;2023-05-16T05:32:21;96528.97;;;14.41;70.42
3150;BME280;32503;47.748;8.960;2023-05-16T05:34:48;96539.91;;;14.63;70.32
3150;BME280;32503;47.748;8.960;2023-05-16T05:37:15;96536.00;;;14.86;69.67
3150;BME280;32503;47.748;8.960;2023-05-16T05:39:42;96536.78;;;14.97;68.74
3150;BME280;32503;47.748;8.960;2023-05-16T05:42:11;96548.03;;;14.99;68.71
3150;BME280;32503;47.748;8.960;2023-05-16T05:44:38;96548.41;;;15.08;67.95
3150;BME280;32503;47.748;8.960;2023-05-16T05:47:06;96532.88;;;15.12;68.28
3150;BME280;32503;47.748;8.960;2023-05-16T05:49:33;96542.94;;;15.19;68.13
3150;BME280;32503;47.748;8.960;2023-05-16T05:52:01;96539.84;;;15.21;67.69
3150;BME280;32503;47.748;8.960;2023-05-16T05:54:28;96542.16;;;15.26;67.65
3150;BME280;32503;47.748;8.960;2023-05-16T05:56:56;96542.16;;;15.29;67.29
3150;BME280;32503;47.748;8.960;2023-05-16T05:59:24;96542.13;;;15.33;66.68
3150;BME280;32503;47.748;8.960;2023-05-16T06:01:52;96554.22;;;15.35;66.21
3150;BME280;32503;47.748;8.960;2023-05-16T06:04:19;96526.22;;;15.24;65.69
3150;BME280;32503;47.748;8.960;2023-05-16T06:06:47;96537.84;;;15.39;65.46
3150;BME280;32503;47.748;8.960;2023-05-16T06:09:14;96547.16;;;15.45;65.11
3150;BME280;32503;47.748;8.960;2023-05-16T06:11:41;96550.66;;;15.49;65.00
3150;BME280;32503;47.748;8.960;2023-05-16T06:14:10;96549.88;;;15.52;64.21
3150;BME280;32503;47.748;8.960;2023-05-16T06:16:38;96549.84;;;15.60;64.57
3150;BME280;32503;47.748;8.960;2023-05-16T06:19:06;96551.41;;;15.61;63.64
3150;BME280;32503;47.748;8.960;2023-05-16T06:21:33;96551.00;;;15.66;63.81
3150;BME280;32503;47.748;8.960;2023-05-16T06:24:00;96551.38;;;15.75;63.51
3150;BME280;32503;47.748;8.960;2023-05-16T06:26:27;96556.03;;;15.71;62.77
3150;BME280;32503;47.748;8.960;2023-05-16T06:28:54;96555.66;;;15.72;62.85
3150;BME280;32503;47.748;8.960;2023-05-16T06:31:21;96552.94;;;15.76;63.35
3150;BME280;32503;47.748;8.960;2023-05-16T06:33:49;96550.22;;;15.76;63.66
3150;BME280;32503;47.748;8.960;2023-05-16T06:36:16;96557.59;;;15.76;63.93
3150;BME280;32503;47.748;8.960;2023-05-16T06:38:43;96552.94;;;15.76;63.65
3150;BME280;32503;47.748;8.960;2023-05-16T06:41:10;96545.53;;;15.73;63.56
3150;BME280;32503;47.748;8.960;2023-05-16T06:43:37;96557.22;;;15.77;63.43
3150;BME280;32503;47.748;8.960;2023-05-16T06:46:04;96555.25;;;15.81;64.24
3150;BME280;32503;47.748;8.960;2023-05-16T06:48:31;96549.78;;;15.85;64.11
3150;BME280;32503;47.748;8.960;2023-05-16T06:51:00;96541.56;;;15.96;63.74
3150;BME280;32503;47.748;8.960;2023-05-16T06:53:27;96553.19;;;16.03;62.74
3150;BME280;32503;47.748;8.960;2023-05-16T06:55:54;96551.25;;;16.04;62.73
3150;BME280;32503;47.748;8.960;2023-05-16T06:58:21;96556.28;;;16.09;63.13
3150;BME280;32503;47.748;8.960;2023-05-16T07:00:49;96555.81;;;16.21;62.99
3150;BME280;32503;47.748;8.960;2023-05-16T07:03:16;96553.44;;;16.27;62.32
3150;BME280;32503;47.748;8.960;2023-05-16T07:05:43;96545.63;;;16.33;61.67
3150;BME280;32503;47.748;8.960;2023-05-16T07:08:11;96541.31;;;16.39;62.02
3150;BME280;32503;47.748;8.960;2023-05-16T07:10:38;96546.28;;;16.51;61.66
3150;BME280;32503;47.748;8.960;2023-05-16T07:13:06;96544.59;;;16.68;61.96
3150;BME280;32503;47.748;8.960;2023-05-16T07:15:33;96549.16;;;16.89;60.98
3150;BME280;32503;47.748;8.960;2023-05-16T07:18:00;96534.06;;;17.15;60.35
3150;BME280;32503;47.748;8.960;2023-05-16T07:20:27;96536.91;;;17.42;59.80
3150;BME280;32503;47.748;8.960;2023-05-16T07:22:54;96539.75;;;17.66;58.48
3150;BME280;32503;47.748;8.960;2023-05-16T07:25:23;96538.19;;;17.69;57.61
3150;BME280;32503;47.748;8.960;2023-05-16T07:27:51;96529.50;;;17.77;57.75
3150;BME280;32503;47.748;8.960;2023-05-16T07:30:18;96546.41;;;17.99;57.56
3150;BME280;32503;47.748;8.960;2023-05-16T07:32:46;96548.44;;;18.23;57.50
3150;BME280;32503;47.748;8.960;2023-05-16T07:35:13;96541.94;;;18.40;56.75
3150;BME280;32503;47.748;8.960;2023-05-16T07:37:40;96550.41;;;18.49;56.06
3150;BME280;32503;47.748;8.960;2023-05-16T07:40:09;96553.88;;;18.53;55.82
3150;BME280;32503;47.748;8.960;2023-05-16T07:42:37;96539.91;;;18.48;55.88
3150;BME280;32503;47.748;8.960;2023-05-16T07:45:06;96542.69;;;18.44;55.71
3150;BME280;32503;47.748;8.960;2023-05-16T07:47:33;96549.84;;;18.34;55.77
3150;BME280;32503;47.748;8.960;2023-05-16T07:50:00;96549.91;;;18.31;55.81
3150;BME280;32503;47.748;8.960;2023-05-16T07:52:27;96551.53;;;18.25;55.93
3150;BME280;32503;47.748;8.960;2023-05-16T07:54:54;96552.38;;;18.22;55.89
3150;BME280;32503;47.748;8.960;2023-05-16T07:57:23;96552.59;;;18.07;56.17
3150;BME280;32503;47.748;8.960;2023-05-16T07:59:51;96551.84;;;18.03;56.38
3150;BME280;32503;47.748;8.960;2023-05-16T08:02:18;96551.13;;;17.99;56.00
3150;BME280;32503;47.748;8.960;2023-05-16T08:04:46;96550.75;;;17.97;55.29
3150;BME280;32503;47.748;8.960;2023-05-16T08:07:13;96556.22;;;17.97;54.84
3150;BME280;32503;47.748;8.960;2023-05-16T08:09:40;96546.09;;;17.94;54.06
3150;BME280;32503;47.748;8.960;2023-05-16T08:12:08;96550.41;;;17.95;54.04
3150;BME280;32503;47.748;8.960;2023-05-16T08:14:35;96546.56;;;17.89;53.40
3150;BME280;32503;47.748;8.960;2023-05-16T08:17:04;96557.84;;;17.91;53.26
3150;BME280;32503;47.748;8.960;2023-05-16T08:19:31;96552.03;;;17.89;53.15
3150;BME280;32503;47.748;8.960;2023-05-16T08:21:58;96557.22;;;18.10;53.40
3150;BME280;32503;47.748;8.960;2023-05-16T08:24:25;96559.47;;;18.46;52.45
3150;BME280;32503;47.748;8.960;2023-05-16T08:26:52;96556.88;;;18.63;51.50
3150;BME280;32503;47.748;8.960;2023-05-16T08:29:19;96552.50;;;18.65;50.29
3150;BME280;32503;47.748;8.960;2023-05-16T08:31:47;96551.38;;;18.63;50.48
3150;BME280;32503;47.748;8.960;2023-05-16T08:34:16;96555.00;;;18.56;50.48
3150;BME280;32503;47.748;8.960;2023-05-16T08:36:43;96546.03;;;18.55;50.26
3150;BME280;32503;47.748;8.960;2023-05-16T08:39:10;96546.09;;;18.52;50.50
3150;BME280;32503;47.748;8.960;2023-05-16T08:41:37;96558.16;;;18.54;50.83
3150;BME280;32503;47.748;8.960;2023-05-16T08:44:05;96551.97;;;18.50;51.18
3150;BME280;32503;47.748;8.960;2023-05-16T08:46:33;96554.34;;;18.48;51.32
3150;BME280;32503;47.748;8.960;2023-05-16T08:49:00;96556.63;;;18.53;51.30
3150;BME280;32503;47.748;8.960;2023-05-16T08:51:32;96559.06;;;18.48;50.82
3150;BME280;32503;47.748;8.960;2023-05-16T08:54:05;96558.72;;;18.42;51.12
3150;BME280;32503;47.748;8.960;2023-05-16T08:56:35;96560.91;;;18.27;51.53
3150;BME280;32503;47.748;8.960;2023-05-16T08:59:04;96558.31;;;18.16;51.47
3150;BME280;32503;47.748;8.960;2023-05-16T09:01:31;96533.81;;;17.75;51.74
3150;BME280;32503;47.748;8.960;2023-05-16T09:03:59;96569.25;;;17.82;52.51
3150;BME280;32503;47.748;8.960;2023-05-16T09:06:26;96556.47;;;17.75;52.73
3150;BME280;32503;47.748;8.960;2023-05-16T09:08:55;96541.50;;;17.53;53.08
3150;BME280;32503;47.748;8.960;2023-05-16T09:11:22;96568.06;;;17.49;53.32
3150;BME280;32503;47.748;8.960;2023-05-16T09:13:49;96567.34;;;17.44;53.87
3150;BME280;32503;47.748;8.960;2023-05-16T09:16:18;96569.06;;;17.31;53.51
3150;BME280;32503;47.748;8.960;2023-05-16T09:18:53;96561.25;;;17.30;53.95
3150;BME280;32503;47.748;8.960;2023-05-16T09:21:22;96567.56;;;17.23;53.98
3150;BME280;32503;47.748;8.960;2023-05-16T09:23:49;96569.88;;;17.24;53.88
3150;BME280;32503;47.748;8.960;2023-05-16T09:26:18;96567.56;;;17.23;53.87
3150;BME280;32503;47.748;8.960;2023-05-16T09:28:46;96567.44;;;17.34;53.66
3150;BME280;32503;47.748;8.960;2023-05-16T09:31:21;96561.16;;;17.40;53.27
3150;BME280;32503;47.748;8.960;2023-05-16T09:33:51;96565.69;;;17.54;53.24
3150;BME280;32503;47.748;8.960;2023-05-16T09:36:18;96555.34;;;17.69;52.67
3150;BME280;32503;47.748;8.960;2023-05-16T09:38:45;96554.25;;;17.97;52.55
3150;BME280;32503;47.748;8.960;2023-05-16T09:41:12;96558.16;;;18.27;52.29
3150;BME280;32503;47.748;8.960;2023-05-16T09:43:42;96559.25;;;18.61;52.32
3150;BME280;32503;47.748;8.960;2023-05-16T09:46:12;96561.16;;;18.64;50.17
3150;BME280;32503;47.748;8.960;2023-05-16T09:48:40;96557.97;;;18.65;49.52
3150;BME280;32503;47.748;8.960;2023-05-16T09:51:08;96559.66;;;18.59;49.32
3150;BME280;32503;47.748;8.960;2023-05-16T09:53:37;96544.75;;;18.64;49.17
3150;BME280;32503;47.748;8.960;2023-05-16T09:56:07;96548.34;;;18.84;49.66
3150;BME280;32503;47.748;8.960;2023-05-16T09:58:38;96545.03;;;18.69;49.36
3150;BME280;32503;47.748;8.960;2023-05-16T10:01:07;96550.97;;;18.64;48.92
3150;BME280;32503;47.748;8.960;2023-05-16T10:03:36;96548.28;;;18.61;49.32
3150;BME280;32503;47.748;8.960;2023-05-16T10:06:05;96554.69;;;18.50;49.97
3150;BME280;32503;47.748;8.960;2023-05-16T10:08:34;96519.84;;;18.27;50.95
3150;BME280;32503;47.748;8.960;2023-05-16T10:11:03;96556.03;;;18.38;50.44
3150;BME280;32503;47.748;8.960;2023-05-16T10:13:32;96545.34;;;18.21;50.87
3150;BME280;32503;47.748;8.960;2023-05-16T10:16:07;96556.13;;;18.04;51.10
3150;BME280;32503;47.748;8.960;2023-05-16T10:18:38;96531.75;;;17.86;51.91
3150;BME280;32503;47.748;8.960;2023-05-16T10:21:09;96545.75;;;17.92;51.45
3150;BME280;32503;47.748;8.960;2023-05-16T10:23:38;96557.22;;;18.10;51.90
3150;BME280;32503;47.748;8.960;2023-05-16T10:26:08;96549.84;;;18.07;51.91
3150;BME280;32503;47.748;8.960;2023-05-16T10:28:35;96554.75;;;17.89;52.03
3150;BME280;32503;47.748;8.960;2023-05-16T10:31:05;96560.63;;;17.87;52.33
3150;BME280;32503;47.748;8.960;2023-05-16T10:33:35;96568.50;;;17.81;52.93
3150;BME280;32503;47.748;8.960;2023-05-16T10:36:03;96564.88;;;17.54;53.44
3150;BME280;32503;47.748;8.960;2023-05-16T10:38:30;96562.91;;;17.58;53.11
3150;BME280;32503;47.748;8.960;2023-05-16T10:40:58;96577.06;;;17.49;53.75
3150;BME280;32503;47.748;8.960;2023-05-16T10:43:28;96567.69;;;17.47;54.22
3150;BME280;32503;47.748;8.960;2023-05-16T10:45:56;96575.91;;;17.47;54.42
3150;BME280;32503;47.748;8.960;2023-05-16T10:48:32;96569.53;;;17.22;54.43
3150;BME280;32503;47.748;8.960;2023-05-16T10:51:01;96577.97;;;17.35;54.23
3150;BME280;32503;47.748;8.960;2023-05-16T10:53:31;96576.84;;;17.29;54.57
3150;BME280;32503;47.748;8.960;2023-05-16T10:56:10;96582.53;;;17.08;54.98
3150;BME280;32503;47.748;8.960;2023-05-16T10:58:46;96584.94;;;16.98;54.97
3150;BME280;32503;47.748;8.960;2023-05-16T11:01:25;96588.16;;;16.86;55.48
3150;BME280;32503;47.748;8.960;2023-05-16T11:04:08;96594.88;;;16.71;56.20
3150;BME280;32503;47.748;8.960;2023-05-16T11:06:45;96600.81;;;16.55;55.99
3150;BME280;32503;47.748;8.960;2023-05-16T11:09:21;96591.44;;;16.59;55.97
3150;BME280;32503;47.748;8.960;2023-05-16T11:12:00;96603.66;;;16.40;56.38
3150;BME280;32503;47.748;8.960;2023-05-16T11:14:36;96597.88;;;16.31;55.46
3150;BME280;32503;47.748;8.960;2023-05-16T11:17:09;96595.56;;;16.22;56.26
3150;BME280;32503;47.748;8.960;2023-05-16T11:19:42;96600.19;;;16.33;55.03
3150;BME280;32503;47.748;8.960;2023-05-16T11:22:22;96571.38;;;16.28;54.39
3150;BME280;32503;47.748;8.960;2023-05-16T11:24:55;96594.59;;;16.54;54.24
3150;BME280;32503;47.748;8.960;2023-05-16T11:27:26;96591.78;;;16.68;53.83
3150;BME280;32503;47.748;8.960;2023-05-16T11:29:58;96587.06;;;16.73;54.49
3150;BME280;32503;47.748;8.960;2023-05-16T11:32:25;96589.31;;;16.89;53.93
3150;BME280;32503;47.748;8.960;2023-05-16T11:34:54;96577.13;;;17.00;53.31
3150;BME280;32503;47.748;8.960;2023-05-16T11:37:21;96580.84;;;17.21;53.00
3150;BME280;32503;47.748;8.960;2023-05-16T11:39:48;96607.34;;;17.24;53.28
3150;BME280;32503;47.748;8.960;2023-05-16T11:42:15;96601.50;;;17.22;52.91
3150;BME280;32503;47.748;8.960;2023-05-16T11:44:43;96589.56;;;17.05;52.81
3150;BME280;32503;47.748;8.960;2023-05-16T11:47:11;96593.09;;;17.02;53.18
3150;BME280;32503;47.748;8.960;2023-05-16T11:49:38;96604.47;;;16.97;53.41
3150;BME280;32503;47.748;8.960;2023-05-16T11:52:08;96606.53;;;16.78;53.78
3150;BME280;32503;47.748;8.960;2023-05-16T11:54:36;96605.34;;;16.79;53.94
3150;BME280;32503;47.748;8.960;2023-05-16T11:57:04;96610.88;;;16.68;53.69
3150;BME280;32503;47.748;8.960;2023-05-16T11:59:31;96609.34;;;16.60;54.30
3150;BME280;32503;47.748;8.960;2023-05-16T12:02:02;96606.97;;;16.70;54.44
3150;BME280;32503;47.748;8.960;2023-05-16T12:04:30;96606.56;;;16.75;53.99
3150;BME280;32503;47.748;8.960;2023-05-16T12:06:59;96608.88;;;16.73;53.25
3150;BME280;32503;47.748;8.960;2023-05-16T12:09:28;96602.94;;;16.89;52.67
3150;BME280;32503;47.748;8.960;2023-05-16T12:11:55;96608.38;;;16.92;52.69
3150;BME280;32503;47.748;8.960;2023-05-16T12:14:23;96604.13;;;16.91;52.73
3150;BME280;32503;47.748;8.960;2023-05-16T12:16:51;96604.78;;;17.06;52.77
3150;BME280;32503;47.748;8.960;2023-05-16T12:19:19;96607.81;;;17.15;52.59
3150;BME280;32503;47.748;8.960;2023-05-16T12:21:50;96592.56;;;17.18;52.70
3150;BME280;32503;47.748;8.960;2023-05-16T12:24:17;96615.84;;;17.33;51.88
3150;BME280;32503;47.748;8.960;2023-05-16T12:26:46;96604.63;;;17.20;50.94
3150;BME280;32503;47.748;8.960;2023-05-16T12:29:13;96609.72;;;17.18;51.16
3150;BME280;32503;47.748;8.960;2023-05-16T12:31:41;96616.72;;;17.23;51.22
3150;BME280;32503;47.748;8.960;2023-05-16T12:34:16;96613.13;;;17.33;51.21
3150;BME280;32503;47.748;8.960;2023-05-16T12:36:43;96611.53;;;17.36;50.72
3150;BME280;32503;47.748;8.960;2023-05-16T12:39:12;96620.81;;;17.46;50.54
3150;BME280;32503;47.748;8.960;2023-05-16T12:41:41;96617.31;;;17.41;50.52
3150;BME280;32503;47.748;8.960;2023-05-16T12:44:14;96607.88;;;17.50;50.61
3150;BME280;32503;47.748;8.960;2023-05-16T12:46:45;96612.47;;;17.60;50.70
3150;BME280;32503;47.748;8.960;2023-05-16T12:49:13;96567.50;;;17.30;50.38
3150;BME280;32503;47.748;8.960;2023-05-16T12:51:48;96623.84;;;17.55;50.27
3150;BME280;32503;47.748;8.960;2023-05-16T12:54:15;96615.56;;;17.62;50.24
3150;BME280;32503;47.748;8.960;2023-05-16T12:56:42;96619.59;;;17.50;50.61
3150;BME280;32503;47.748;8.960;2023-05-16T12:59:10;96622.72;;;17.49;50.54
3150;BME280;32503;47.748;8.960;2023-05-16T13:01:39;96604.97;;;17.30;50.33
3150;BME280;32503;47.748;8.960;2023-05-16T13:04:07;96619.44;;;17.27;50.38
3150;BME280;32503;47.748;8.960;2023-05-16T13:06:39;96628.03;;;17.25;51.00
3150;BME280;32503;47.748;8.960;2023-05-16T13:09:06;96627.84;;;17.01;51.27
3150;BME280;32503;47.748;8.960;2023-05-16T13:11:33;96630.94;;;17.03;51.64
3150;BME280;32503;47.748;8.960;2023-05-16T13:14:00;96616.22;;;16.86;51.33
3150;BME280;32503;47.748;8.960;2023-05-16T13:16:27;96619.31;;;16.92;51.34